KCAK

Akron-Canton Regional Airport

Akron, Ohio, USA
METAR KCAK 200051Z 21015KT 10SM FEW100 01/M08 A2995 RMK AO2 SLP157 T00111078
Observed Flight Rules
Jan-20 @ 00:51 UTC (31 minutes ago) Visual Flight Rules
Wind Visibility Clouds
210° at 15 knots 10 miles
  • Few at 10,000' AGL
Temperatures Readings
Current 1°C / 34°F
Dewpoint -8°C / 18°F
Humidity 51%
Altimeter 29.95" Hg
Pressure 1015.7 hPa
Elevation 377
METAR KCAK 200051Z 21015KT 10SM FEW100 01/M08 A2995 RMK AO2 SLP157 T00111078
Observed Flight Rules
Jan-20 @ 00:51 UTC
(31 minutes ago)
VFR
Wind Visibility
210° at 15 knots 10 miles
Clouds
  • Few at 10,000' AGL
Temperature Dewpoint
1°C / 34°F -8°C / 18°F
Humidity Altimeter Pressure
51% 29.95" Hg 1015.7 hPa